sensor_id;sensor_type;location;lat;lon;timestamp;P1;durP1;ratioP1;P2;durP2;ratioP2
52438;SDS011;38359;53.150;6.504;2022-12-29T00:00:19;6.72;;;4.30;;
52438;SDS011;38359;53.150;6.504;2022-12-29T00:10:45;6.00;;;4.78;;
52438;SDS011;38359;53.150;6.504;2022-12-29T00:21:14;7.82;;;5.07;;
52438;SDS011;38359;53.150;6.504;2022-12-29T00:32:06;5.03;;;4.07;;
52438;SDS011;38359;53.150;6.504;2022-12-29T00:42:53;10.00;;;4.00;;
52438;SDS011;38359;53.150;6.504;2022-12-29T00:53:38;4.63;;;4.18;;
52438;SDS011;38359;53.150;6.504;2022-12-29T01:04:04;9.23;;;4.43;;
52438;SDS011;38359;53.150;6.504;2022-12-29T01:14:31;8.38;;;4.63;;
52438;SDS011;38359;53.150;6.504;2022-12-29T01:24:57;4.53;;;4.03;;
52438;SDS011;38359;53.150;6.504;2022-12-29T01:35:22;5.95;;;4.32;;
52438;SDS011;38359;53.150;6.504;2022-12-29T01:45:50;7.57;;;4.72;;
52438;SDS011;38359;53.150;6.504;2022-12-29T01:56:18;7.47;;;5.05;;
52438;SDS011;38359;53.150;6.504;2022-12-29T02:06:48;8.50;;;4.38;;
52438;SDS011;38359;53.150;6.504;2022-12-29T02:28:27;5.75;;;3.00;;
52438;SDS011;38359;53.150;6.504;2022-12-29T02:50:43;6.60;;;2.30;;
52438;SDS011;38359;53.150;6.504;2022-12-29T03:12:53;3.88;;;2.22;;
52438;SDS011;38359;53.150;6.504;2022-12-29T03:24:11;7.27;;;3.00;;
52438;SDS011;38359;53.150;6.504;2022-12-29T03:34:38;4.30;;;1.48;;
52438;SDS011;38359;53.150;6.504;2022-12-29T03:45:05;6.95;;;1.70;;
52438;SDS011;38359;53.150;6.504;2022-12-29T03:55:33;1.90;;;1.50;;
52438;SDS011;38359;53.150;6.504;2022-12-29T04:05:59;3.67;;;1.58;;
52438;SDS011;38359;53.150;6.504;2022-12-29T04:16:24;6.53;;;1.80;;
52438;SDS011;38359;53.150;6.504;2022-12-29T04:26:50;6.32;;;1.70;;
52438;SDS011;38359;53.150;6.504;2022-12-29T04:37:16;9.18;;;1.90;;
52438;SDS011;38359;53.150;6.504;2022-12-29T04:47:42;6.63;;;1.00;;
52438;SDS011;38359;53.150;6.504;2022-12-29T04:58:08;15.60;;;1.80;;
52438;SDS011;38359;53.150;6.504;2022-12-29T05:08:34;7.93;;;2.22;;
52438;SDS011;38359;53.150;6.504;2022-12-29T05:19:00;12.77;;;2.13;;
52438;SDS011;38359;53.150;6.504;2022-12-29T05:29:25;11.40;;;1.98;;
52438;SDS011;38359;53.150;6.504;2022-12-29T05:39:52;15.85;;;1.77;;
52438;SDS011;38359;53.150;6.504;2022-12-29T05:50:18;10.15;;;2.17;;
52438;SDS011;38359;53.150;6.504;2022-12-29T06:00:44;10.80;;;2.10;;
52438;SDS011;38359;53.150;6.504;2022-12-29T06:11:10;16.08;;;2.47;;
52438;SDS011;38359;53.150;6.504;2022-12-29T06:21:35;11.95;;;2.53;;
52438;SDS011;38359;53.150;6.504;2022-12-29T06:32:02;18.55;;;2.00;;
52438;SDS011;38359;53.150;6.504;2022-12-29T06:42:28;15.18;;;2.78;;
52438;SDS011;38359;53.150;6.504;2022-12-29T06:52:54;15.27;;;2.42;;
52438;SDS011;38359;53.150;6.504;2022-12-29T07:03:20;27.70;;;3.47;;
52438;SDS011;38359;53.150;6.504;2022-12-29T07:13:46;20.98;;;3.00;;
52438;SDS011;38359;53.150;6.504;2022-12-29T07:24:12;19.73;;;2.42;;
52438;SDS011;38359;53.150;6.504;2022-12-29T07:34:37;18.50;;;2.67;;
52438;SDS011;38359;53.150;6.504;2022-12-29T07:45:04;20.27;;;3.13;;
52438;SDS011;38359;53.150;6.504;2022-12-29T07:55:31;21.80;;;2.75;;
52438;SDS011;38359;53.150;6.504;2022-12-29T08:05:57;24.52;;;3.00;;
52438;SDS011;38359;53.150;6.504;2022-12-29T08:16:22;28.23;;;3.05;;
52438;SDS011;38359;53.150;6.504;2022-12-29T08:26:48;29.40;;;3.53;;
52438;SDS011;38359;53.150;6.504;2022-12-29T08:37:14;27.52;;;3.92;;
52438;SDS011;38359;53.150;6.504;2022-12-29T08:47:40;21.08;;;3.13;;
52438;SDS011;38359;53.150;6.504;2022-12-29T08:58:05;34.28;;;3.80;;
52438;SDS011;38359;53.150;6.504;2022-12-29T09:08:31;23.75;;;3.47;;
52438;SDS011;38359;53.150;6.504;2022-12-29T09:18:57;32.15;;;4.18;;
52438;SDS011;38359;53.150;6.504;2022-12-29T09:29:23;30.17;;;3.47;;
52438;SDS011;38359;53.150;6.504;2022-12-29T09:39:49;25.48;;;3.33;;
52438;SDS011;38359;53.150;6.504;2022-12-29T09:50:28;31.38;;;5.32;;
52438;SDS011;38359;53.150;6.504;2022-12-29T10:01:03;35.20;;;5.57;;
52438;SDS011;38359;53.150;6.504;2022-12-29T10:33:36;28.42;;;3.38;;
52438;SDS011;38359;53.150;6.504;2022-12-29T10:44:07;20.80;;;2.47;;
52438;SDS011;38359;53.150;6.504;2022-12-29T11:15:57;26.63;;;4.28;;
52438;SDS011;38359;53.150;6.504;2022-12-29T11:26:25;31.95;;;5.75;;
52438;SDS011;38359;53.150;6.504;2022-12-29T11:36:54;33.72;;;5.25;;
52438;SDS011;38359;53.150;6.504;2022-12-29T11:47:41;36.65;;;5.32;;
52438;SDS011;38359;53.150;6.504;2022-12-29T11:58:11;32.22;;;4.63;;
52438;SDS011;38359;53.150;6.504;2022-12-29T12:08:48;35.25;;;4.68;;
52438;SDS011;38359;53.150;6.504;2022-12-29T12:30:54;39.42;;;5.20;;
52438;SDS011;38359;53.150;6.504;2022-12-29T12:52:17;25.40;;;3.80;;
52438;SDS011;38359;53.150;6.504;2022-12-29T13:35:45;34.33;;;4.53;;
52438;SDS011;38359;53.150;6.504;2022-12-29T13:46:28;19.30;;;3.05;;
52438;SDS011;38359;53.150;6.504;2022-12-29T13:57:14;16.25;;;2.90;;
52438;SDS011;38359;53.150;6.504;2022-12-29T14:08:00;19.00;;;2.83;;
52438;SDS011;38359;53.150;6.504;2022-12-29T14:18:29;15.00;;;2.25;;
52438;SDS011;38359;53.150;6.504;2022-12-29T14:39:48;32.08;;;3.75;;
52438;SDS011;38359;53.150;6.504;2022-12-29T14:50:15;21.08;;;3.28;;
52438;SDS011;38359;53.150;6.504;2022-12-29T15:00:46;23.70;;;3.97;;
52438;SDS011;38359;53.150;6.504;2022-12-29T15:11:14;32.63;;;3.85;;
52438;SDS011;38359;53.150;6.504;2022-12-29T15:21:43;24.27;;;4.55;;
52438;SDS011;38359;53.150;6.504;2022-12-29T15:32:19;26.13;;;3.45;;
52438;SDS011;38359;53.150;6.504;2022-12-29T15:53:52;23.52;;;2.50;;
52438;SDS011;38359;53.150;6.504;2022-12-29T16:04:20;14.63;;;2.45;;
52438;SDS011;38359;53.150;6.504;2022-12-29T16:14:47;22.20;;;3.75;;
52438;SDS011;38359;53.150;6.504;2022-12-29T16:25:31;18.17;;;2.45;;
52438;SDS011;38359;53.150;6.504;2022-12-29T16:36:02;9.88;;;1.45;;
52438;SDS011;38359;53.150;6.504;2022-12-29T16:47:31;14.88;;;1.88;;
52438;SDS011;38359;53.150;6.504;2022-12-29T16:57:38;17.13;;;2.72;;
52438;SDS011;38359;53.150;6.504;2022-12-29T17:08:13;9.18;;;1.73;;
52438;SDS011;38359;53.150;6.504;2022-12-29T17:18:48;18.73;;;3.35;;
52438;SDS011;38359;53.150;6.504;2022-12-29T17:29:36;15.38;;;2.83;;
52438;SDS011;38359;53.150;6.504;2022-12-29T17:40:05;30.25;;;3.60;;
52438;SDS011;38359;53.150;6.504;2022-12-29T17:50:37;21.77;;;2.65;;
52438;SDS011;38359;53.150;6.504;2022-12-29T18:01:03;27.90;;;3.45;;
52438;SDS011;38359;53.150;6.504;2022-12-29T18:11:30;23.67;;;3.22;;
52438;SDS011;38359;53.150;6.504;2022-12-29T18:21:56;30.60;;;3.78;;
52438;SDS011;38359;53.150;6.504;2022-12-29T18:32:21;30.27;;;4.32;;
52438;SDS011;38359;53.150;6.504;2022-12-29T18:42:47;35.80;;;4.55;;
52438;SDS011;38359;53.150;6.504;2022-12-29T18:53:17;35.00;;;3.95;;
52438;SDS011;38359;53.150;6.504;2022-12-29T19:03:46;25.90;;;4.85;;
52438;SDS011;38359;53.150;6.504;2022-12-29T19:14:13;35.83;;;5.45;;
52438;SDS011;38359;53.150;6.504;2022-12-29T19:24:41;33.30;;;5.82;;
52438;SDS011;38359;53.150;6.504;2022-12-29T19:35:08;30.42;;;3.85;;
52438;SDS011;38359;53.150;6.504;2022-12-29T19:45:36;36.72;;;4.75;;
52438;SDS011;38359;53.150;6.504;2022-12-29T19:56:05;37.53;;;6.03;;
52438;SDS011;38359;53.150;6.504;2022-12-29T20:06:32;37.72;;;4.75;;
52438;SDS011;38359;53.150;6.504;2022-12-29T20:16:58;37.88;;;6.05;;
52438;SDS011;38359;53.150;6.504;2022-12-29T20:27:24;37.45;;;4.88;;
52438;SDS011;38359;53.150;6.504;2022-12-29T20:37:49;28.65;;;5.20;;
52438;SDS011;38359;53.150;6.504;2022-12-29T20:48:15;26.23;;;4.25;;
52438;SDS011;38359;53.150;6.504;2022-12-29T20:58:41;30.75;;;5.15;;
52438;SDS011;38359;53.150;6.504;2022-12-29T21:09:07;41.67;;;4.70;;
52438;SDS011;38359;53.150;6.504;2022-12-29T21:19:33;32.35;;;3.90;;
52438;SDS011;38359;53.150;6.504;2022-12-29T21:30:00;35.65;;;6.47;;
52438;SDS011;38359;53.150;6.504;2022-12-29T21:40:26;36.85;;;4.78;;
52438;SDS011;38359;53.150;6.504;2022-12-29T21:50:54;28.95;;;3.60;;
52438;SDS011;38359;53.150;6.504;2022-12-29T22:01:48;25.13;;;4.00;;
52438;SDS011;38359;53.150;6.504;2022-12-29T22:12:32;40.00;;;4.70;;
52438;SDS011;38359;53.150;6.504;2022-12-29T22:23:17;42.53;;;5.28;;
52438;SDS011;38359;53.150;6.504;2022-12-29T22:33:43;33.83;;;5.97;;
52438;SDS011;38359;53.150;6.504;2022-12-29T22:44:09;35.15;;;4.95;;
52438;SDS011;38359;53.150;6.504;2022-12-29T22:54:35;42.47;;;5.38;;
52438;SDS011;38359;53.150;6.504;2022-12-29T23:05:01;35.08;;;4.95;;
52438;SDS011;38359;53.150;6.504;2022-12-29T23:15:27;51.90;;;5.15;;
52438;SDS011;38359;53.150;6.504;2022-12-29T23:25:53;41.70;;;6.32;;
52438;SDS011;38359;53.150;6.504;2022-12-29T23:36:18;35.97;;;4.65;;
52438;SDS011;38359;53.150;6.504;2022-12-29T23:46:45;48.78;;;5.38;;
52438;SDS011;38359;53.150;6.504;2022-12-29T23:57:10;40.03;;;5.43;;
